Time;durP1;ratioP1;P1;durP2;ratioP2;P2;SDS_P1;SDS_P2;PMS_P1;PMS_P2;Temp;Humidity;BMP_temperature;BMP_pressure;BME280_temperature;BME280_humidity;BME280_pressure;Samples;Min_cycle;Max_cycle;Signal;HPM_P1;HPM_P2
2020/12/17 00:01:11;;;;;;;19.30;8.13;;;8.80;99.90;;;;;;5069865;28;20271;-76
2020/12/17 00:03:38;;;;;;;17.50;8.27;;;8.80;99.90;;;;;;5053264;28;20301;-76
2020/12/17 00:06:05;;;;;;;24.80;8.80;;;8.80;99.90;;;;;;5053481;28;20209;-76
2020/12/17 00:08:32;;;;;;;20.97;8.43;;;8.80;99.90;;;;;;5053268;28;20723;-76
2020/12/17 00:10:58;;;;;;;17.00;8.47;;;8.80;99.90;;;;;;5064661;28;20234;-76
2020/12/17 00:13:24;;;;;;;15.73;8.07;;;8.90;99.90;;;;;;5073649;28;20233;-76
2020/12/17 00:15:51;;;;;;;17.60;8.13;;;8.90;99.90;;;;;;5072971;28;20241;-76
2020/12/17 00:18:17;;;;;;;17.33;8.53;;;8.90;99.90;;;;;;5073279;28;20267;-76
2020/12/17 00:20:44;;;;;;;19.20;7.47;;;8.90;99.90;;;;;;5071616;28;20235;-76
2020/12/17 00:23:11;;;;;;;19.60;7.77;;;8.90;99.90;;;;;;5061406;28;20233;-76
2020/12/17 00:25:37;;;;;;;20.20;7.53;;;8.90;99.90;;;;;;5072944;28;20231;-76
2020/12/17 00:28:04;;;;;;;20.07;7.87;;;8.90;99.90;;;;;;5072730;28;20323;-76
2020/12/17 00:30:30;;;;;;;19.20;6.90;;;8.80;99.90;;;;;;5072620;28;20236;-77
2020/12/17 00:32:56;;;;;;;19.70;7.83;;;8.80;99.90;;;;;;5070579;28;20237;-76
2020/12/17 00:35:23;;;;;;;19.87;7.60;;;8.70;99.90;;;;;;5073127;28;20233;-76
2020/12/17 00:37:49;;;;;;;22.87;8.83;;;8.70;99.90;;;;;;5072053;28;20668;-76
2020/12/17 00:40:16;;;;;;;20.97;7.57;;;8.70;99.90;;;;;;5068680;28;20283;-76
2020/12/17 00:42:44;;;;;;;19.53;7.57;;;8.70;99.90;;;;;;5052765;28;20241;-76
2020/12/17 00:45:12;;;;;;;19.83;7.63;;;8.60;99.90;;;;;;5052573;28;20240;-76
2020/12/17 00:47:38;;;;;;;19.10;7.83;;;8.70;99.90;;;;;;5049600;28;20254;-76
2020/12/17 00:50:05;;;;;;;21.67;7.57;;;8.70;99.90;;;;;;5072752;28;20237;-76
2020/12/17 00:52:35;;;;;;;22.07;7.43;;;8.70;99.90;;;;;;5071930;28;20662;-76
2020/12/17 00:55:02;;;;;;;21.40;7.57;;;8.70;99.90;;;;;;5062010;28;20234;-76
2020/12/17 00:57:29;;;;;;;17.93;7.33;;;8.70;99.90;;;;;;5063518;28;20234;-76
2020/12/17 00:59:55;;;;;;;22.20;7.93;;;8.60;99.90;;;;;;5071578;28;20241;-76
2020/12/17 01:02:22;;;;;;;17.40;7.93;;;8.50;99.90;;;;;;5065297;28;20288;-76
2020/12/17 01:04:48;;;;;;;21.90;8.23;;;8.40;99.90;;;;;;5067507;28;20228;-76
2020/12/17 01:07:15;;;;;;;19.50;7.43;;;8.40;99.90;;;;;;5068890;28;20585;-76
2020/12/17 01:09:42;;;;;;;17.83;8.37;;;8.40;99.90;;;;;;5065358;28;20286;-76
2020/12/17 01:12:08;;;;;;;22.73;8.37;;;8.40;99.90;;;;;;5053392;28;20688;-76
2020/12/17 01:14:36;;;;;;;15.10;8.07;;;8.40;99.90;;;;;;5051844;28;20292;-76
2020/12/17 01:17:04;;;;;;;17.90;8.33;;;8.40;99.90;;;;;;5064709;28;20240;-76
2020/12/17 01:19:31;;;;;;;20.10;8.07;;;8.40;99.90;;;;;;5054304;28;20325;-76
2020/12/17 01:21:57;;;;;;;19.60;8.33;;;8.30;99.90;;;;;;5071825;28;20198;-76
2020/12/17 01:24:24;;;;;;;20.87;8.13;;;8.20;99.90;;;;;;5062856;28;20227;-76
2020/12/17 01:26:52;;;;;;;13.60;7.43;;;8.20;99.90;;;;;;5064562;28;20365;-76
2020/12/17 01:29:19;;;;;;;18.60;7.77;;;8.20;99.90;;;;;;5051253;28;20242;-76
2020/12/17 01:31:46;;;;;;;18.87;8.53;;;8.20;99.90;;;;;;5051987;28;20237;-76
2020/12/17 01:34:13;;;;;;;18.83;8.03;;;8.20;99.90;;;;;;5051547;28;20628;-76
2020/12/17 01:36:39;;;;;;;17.87;7.37;;;8.10;99.90;;;;;;5071126;28;20243;-76
2020/12/17 01:39:05;;;;;;;25.13;8.23;;;8.10;99.90;;;;;;5071192;28;20226;-76
2020/12/17 01:41:32;;;;;;;22.17;7.70;;;8.20;99.90;;;;;;5071696;28;20238;-76
2020/12/17 01:44:01;;;;;;;19.30;8.17;;;8.20;99.90;;;;;;5070279;28;20283;-76
2020/12/17 01:46:28;;;;;;;21.77;7.33;;;8.10;99.90;;;;;;5070951;28;20204;-76
2020/12/17 01:48:56;;;;;;;16.30;7.77;;;8.10;99.90;;;;;;5072286;28;20277;-76
2020/12/17 01:51:22;;;;;;;19.07;7.37;;;8.10;99.90;;;;;;5064345;28;20239;-76
2020/12/17 01:53:51;;;;;;;13.87;7.70;;;8.00;99.90;;;;;;5071309;28;20304;-76
2020/12/17 01:56:25;;;;;;;18.47;7.20;;;8.10;99.90;;;;;;5071535;28;20234;-76
2020/12/17 01:58:58;;;;;;;20.93;8.03;;;8.00;99.90;;;;;;5071434;28;20235;-76
2020/12/17 02:01:26;;;;;;;23.13;7.70;;;8.00;99.90;;;;;;5070373;28;20205;-76
2020/12/17 02:03:55;;;;;;;18.57;7.23;;;8.00;99.90;;;;;;5051671;28;20200;-76
2020/12/17 02:06:22;;;;;;;18.07;7.73;;;7.90;99.90;;;;;;5051409;28;20235;-76
2020/12/17 02:08:51;;;;;;;22.30;7.60;;;7.90;99.90;;;;;;5051596;28;20223;-76
2020/12/17 02:11:18;;;;;;;22.93;8.10;;;7.90;99.90;;;;;;5051019;28;20691;-75
2020/12/17 02:13:45;;;;;;;18.77;7.83;;;7.90;99.90;;;;;;5051766;28;20200;-75
2020/12/17 02:16:12;;;;;;;18.90;7.30;;;7.90;99.90;;;;;;5064688;28;20662;-76
2020/12/17 02:18:38;;;;;;;19.07;7.37;;;7.90;99.90;;;;;;5070789;28;20253;-76
2020/12/17 02:21:06;;;;;;;19.07;8.07;;;7.90;99.90;;;;;;5070705;28;20227;-76
2020/12/17 02:23:33;;;;;;;16.50;7.43;;;7.90;99.90;;;;;;5053224;28;20682;-76
2020/12/17 02:26:01;;;;;;;18.73;7.67;;;7.80;99.90;;;;;;5070731;28;20234;-76
2020/12/17 02:28:27;;;;;;;20.83;7.23;;;7.80;99.90;;;;;;5065167;28;20316;-75
2020/12/17 02:30:53;;;;;;;16.53;7.20;;;7.80;99.90;;;;;;5071008;28;20633;-75
2020/12/17 02:33:20;;;;;;;20.77;7.53;;;7.80;99.90;;;;;;5071183;28;20241;-76
2020/12/17 02:35:46;;;;;;;19.93;7.77;;;7.80;99.90;;;;;;5071389;28;20286;-75
2020/12/17 02:38:13;;;;;;;21.50;6.53;;;7.70;99.90;;;;;;5071077;28;20230;-75
2020/12/17 02:40:39;;;;;;;22.77;7.67;;;7.60;99.90;;;;;;5070202;28;20254;-76
2020/12/17 02:43:10;;;;;;;16.37;6.07;;;7.60;99.90;;;;;;5058335;28;20238;-75
2020/12/17 02:45:36;;;;;;;24.57;6.97;;;7.60;99.90;;;;;;5050775;28;20236;-75
2020/12/17 02:48:03;;;;;;;18.37;6.17;;;7.50;99.90;;;;;;5051279;28;20722;-75
2020/12/17 02:50:29;;;;;;;16.27;5.50;;;7.50;99.90;;;;;;5059689;28;20239;-75
2020/12/17 02:52:55;;;;;;;18.40;5.70;;;7.50;99.90;;;;;;5071204;28;20234;-75
2020/12/17 02:55:22;;;;;;;17.30;6.17;;;7.50;99.90;;;;;;5071719;28;20231;-75
2020/12/17 02:57:48;;;;;;;19.20;6.33;;;7.40;99.90;;;;;;5074404;28;20234;-74
2020/12/17 03:00:16;;;;;;;18.90;6.77;;;7.50;99.90;;;;;;5072880;28;20241;-75
2020/12/17 03:02:43;;;;;;;15.03;5.90;;;7.50;99.90;;;;;;5054588;28;20241;-75
2020/12/17 03:05:09;;;;;;;17.97;5.80;;;7.50;99.90;;;;;;5054682;28;20701;-75
2020/12/17 03:07:35;;;;;;;21.10;5.67;;;7.40;99.90;;;;;;5054454;28;20255;-75
2020/12/17 03:10:04;;;;;;;17.20;6.40;;;7.40;99.90;;;;;;5054227;28;20231;-75
2020/12/17 03:12:31;;;;;;;22.30;5.87;;;7.30;99.90;;;;;;5054561;28;20238;-74
2020/12/17 03:14:57;;;;;;;16.30;5.83;;;7.20;99.90;;;;;;5059963;28;20282;-76
2020/12/17 03:17:25;;;;;;;15.87;6.27;;;7.20;99.90;;;;;;5074702;28;20306;-75
2020/12/17 03:19:51;;;;;;;16.77;5.67;;;7.20;99.90;;;;;;5071157;28;20278;-75
2020/12/17 03:22:17;;;;;;;19.70;5.93;;;7.20;99.90;;;;;;5036629;28;20282;-75
2020/12/17 03:24:44;;;;;;;15.40;5.13;;;7.20;99.90;;;;;;5073855;28;20238;-75
2020/12/17 03:27:10;;;;;;;17.00;5.90;;;7.20;99.90;;;;;;5068411;28;20311;-75
2020/12/17 03:29:37;;;;;;;13.10;4.80;;;7.20;99.90;;;;;;5074083;28;20230;-75
2020/12/17 03:32:03;;;;;;;11.87;4.43;;;7.30;99.90;;;;;;5054567;28;20655;-75
2020/12/17 03:34:30;;;;;;;18.27;5.00;;;7.30;99.90;;;;;;5054121;28;20242;-75
2020/12/17 03:36:57;;;;;;;21.17;5.13;;;7.40;99.90;;;;;;5053859;28;20231;-75
2020/12/17 03:39:23;;;;;;;17.30;5.30;;;7.20;99.90;;;;;;5071017;28;20235;-75
2020/12/17 03:41:51;;;;;;;19.37;4.90;;;7.20;99.90;;;;;;5073724;28;20245;-75
2020/12/17 03:44:17;;;;;;;17.57;5.23;;;7.30;99.90;;;;;;5072862;28;20232;-75
2020/12/17 03:46:44;;;;;;;16.97;4.37;;;7.30;99.90;;;;;;5074123;28;20288;-75
2020/12/17 03:49:10;;;;;;;17.27;4.97;;;7.30;99.90;;;;;;5073589;28;20723;-75
2020/12/17 03:51:38;;;;;;;13.67;5.23;;;7.30;99.90;;;;;;5055692;28;20253;-75
2020/12/17 03:54:05;;;;;;;13.87;5.07;;;7.20;99.90;;;;;;5073284;28;20294;-75
2020/12/17 03:56:31;;;;;;;13.37;4.17;;;7.20;99.90;;;;;;5073779;28;20203;-75
2020/12/17 03:58:58;;;;;;;14.50;4.80;;;7.30;99.90;;;;;;5073755;28;20582;-75
2020/12/17 04:01:24;;;;;;;16.20;4.63;;;7.40;99.90;;;;;;5073153;28;20235;-75
2020/12/17 04:03:51;;;;;;;15.93;4.30;;;7.50;99.90;;;;;;5072466;28;20286;-75
2020/12/17 04:06:17;;;;;;;17.67;4.57;;;7.60;99.90;;;;;;5073332;28;20233;-75
2020/12/17 04:08:44;;;;;;;17.47;4.20;;;7.70;99.90;;;;;;5073218;28;20778;-76
2020/12/17 04:11:11;;;;;;;20.23;4.50;;;7.80;99.90;;;;;;5072851;28;20742;-75
2020/12/17 04:13:38;;;;;;;15.47;4.17;;;7.80;99.90;;;;;;5073592;28;20243;-75
2020/12/17 04:16:04;;;;;;;16.93;4.57;;;7.80;99.90;;;;;;5072419;28;20238;-75
2020/12/17 04:18:31;;;;;;;18.23;4.57;;;7.90;99.90;;;;;;5071575;28;20238;-75
2020/12/17 04:20:57;;;;;;;17.43;4.10;;;7.90;99.90;;;;;;5056745;28;20238;-75
2020/12/17 04:23:24;;;;;;;13.60;3.60;;;7.90;99.90;;;;;;5052528;28;20287;-74
2020/12/17 04:25:51;;;;;;;16.80;4.00;;;8.10;99.90;;;;;;5061075;28;20222;-75
2020/12/17 04:28:18;;;;;;;16.17;3.90;;;8.10;99.90;;;;;;5072189;28;20322;-75
2020/12/17 04:30:44;;;;;;;17.13;3.70;;;8.10;99.90;;;;;;5069662;28;20239;-75
2020/12/17 04:33:10;;;;;;;14.83;3.90;;;8.10;99.90;;;;;;5072588;28;20231;-75
2020/12/17 04:35:37;;;;;;;16.87;3.70;;;8.10;99.90;;;;;;5072980;28;20230;-77
2020/12/17 04:38:03;;;;;;;16.10;4.13;;;8.10;99.90;;;;;;5072269;28;20238;-75
2020/12/17 04:40:30;;;;;;;15.57;3.30;;;8.10;99.90;;;;;;5072833;28;20223;-75
2020/12/17 04:42:57;;;;;;;21.20;3.80;;;8.10;99.90;;;;;;5072526;28;20249;-75
2020/12/17 04:45:25;;;;;;;12.73;3.50;;;8.00;99.90;;;;;;5054698;28;20723;-74
2020/12/17 04:47:53;;;;;;;17.80;3.43;;;7.90;99.90;;;;;;5072084;28;20254;-75
2020/12/17 04:50:23;;;;;;;16.67;3.33;;;7.90;99.90;;;;;;5062477;28;20236;-74
2020/12/17 04:52:53;;;;;;;15.80;3.70;;;7.90;99.90;;;;;;5065098;28;20616;-75
2020/12/17 04:55:23;;;;;;;19.57;3.90;;;7.90;99.90;;;;;;5072325;28;20480;-74
2020/12/17 04:57:52;;;;;;;16.47;3.60;;;8.00;99.90;;;;;;5054245;28;20681;-75
2020/12/17 05:00:20;;;;;;;18.23;3.20;;;8.10;99.90;;;;;;5072107;28;20242;-74
2020/12/17 05:02:48;;;;;;;13.03;3.30;;;8.00;99.90;;;;;;5072315;28;20199;-75
2020/12/17 05:05:15;;;;;;;14.47;3.07;;;7.90;99.90;;;;;;5071620;28;20242;-75
2020/12/17 05:07:42;;;;;;;12.40;3.37;;;7.80;99.90;;;;;;5067981;28;20258;-75
2020/12/17 05:10:08;;;;;;;13.57;3.00;;;7.70;99.90;;;;;;5052832;28;20279;-74
2020/12/17 05:12:35;;;;;;;18.43;3.57;;;7.60;99.90;;;;;;5052081;28;20231;-77
2020/12/17 05:15:01;;;;;;;13.43;3.67;;;7.60;99.90;;;;;;5069362;28;20230;-77
2020/12/17 05:17:28;;;;;;;16.43;4.00;;;7.60;99.90;;;;;;5071234;28;20230;-77
2020/12/17 05:19:55;;;;;;;19.43;3.67;;;7.60;99.90;;;;;;5058496;28;20645;-75
2020/12/17 05:22:23;;;;;;;18.77;4.37;;;7.60;99.90;;;;;;5062053;28;20234;-75
2020/12/17 05:24:49;;;;;;;19.23;5.03;;;7.70;99.90;;;;;;5071692;28;20203;-75
2020/12/17 05:27:16;;;;;;;17.27;5.03;;;7.90;99.90;;;;;;5071897;28;20720;-75
2020/12/17 05:29:43;;;;;;;19.40;6.03;;;7.90;99.90;;;;;;5071660;28;20277;-75
2020/12/17 05:32:18;;;;;;;21.17;5.77;;;8.00;99.90;;;;;;5072292;28;20260;-74
2020/12/17 05:34:45;;;;;;;17.50;5.63;;;8.00;99.90;;;;;;5071214;28;20244;-74
2020/12/17 05:37:13;;;;;;;22.10;5.87;;;8.10;99.90;;;;;;5072398;28;20241;-75
2020/12/17 05:39:43;;;;;;;22.03;5.97;;;8.10;99.90;;;;;;5061596;28;20203;-75
2020/12/17 05:42:12;;;;;;;20.97;6.07;;;8.20;99.90;;;;;;5058769;28;20215;-75
2020/12/17 05:44:38;;;;;;;19.47;5.53;;;8.20;99.90;;;;;;5071717;28;20238;-75
2020/12/17 05:47:05;;;;;;;21.43;6.03;;;8.20;99.90;;;;;;5072123;28;20289;-75
2020/12/17 05:49:33;;;;;;;20.40;5.70;;;8.20;99.90;;;;;;5062163;28;20636;-77
2020/12/17 05:52:14;;;;;;;23.93;5.57;;;8.30;99.90;;;;;;5052000;28;20678;-77
2020/12/17 05:54:43;;;;;;;23.43;6.17;;;8.30;99.90;;;;;;5051634;28;20202;-74
2020/12/17 05:57:11;;;;;;;24.70;5.90;;;8.30;99.90;;;;;;5051650;28;20212;-77
2020/12/17 05:59:38;;;;;;;20.43;5.80;;;8.30;99.90;;;;;;5060387;28;20222;-74
2020/12/17 06:02:25;;;;;;;18.60;5.97;;;8.40;99.90;;;;;;5071943;28;20236;-75
2020/12/17 06:05:06;;;;;;;23.10;6.23;;;8.40;99.90;;;;;;5069668;28;20219;-74
2020/12/17 06:07:48;;;;;;;21.37;6.50;;;8.50;99.90;;;;;;5070439;28;20664;-77
2020/12/17 06:10:18;;;;;;;27.03;6.73;;;8.50;99.90;;;;;;5051658;28;20287;-75
2020/12/17 06:12:46;;;;;;;33.00;7.23;;;8.50;99.90;;;;;;5051881;28;20232;-75
2020/12/17 06:15:16;;;;;;;41.37;8.27;;;8.50;99.90;;;;;;5051606;28;20211;-77
2020/12/17 06:17:48;;;;;;;28.97;7.27;;;8.60;99.90;;;;;;5059390;28;20194;-75
2020/12/17 06:20:15;;;;;;;44.87;6.83;;;8.60;99.90;;;;;;5071545;28;20228;-75
2020/12/17 06:22:50;;;;;;;52.57;7.20;;;8.60;99.90;;;;;;5055541;28;20231;-75
2020/12/17 06:25:17;;;;;;;52.97;7.93;;;8.60;99.90;;;;;;5065381;28;20564;-75
2020/12/17 06:27:47;;;;;;;48.43;7.67;;;8.60;99.90;;;;;;5070855;28;20268;-75
2020/12/17 06:30:17;;;;;;;61.20;8.73;;;8.60;99.90;;;;;;5072416;28;20206;-76
2020/12/17 06:32:44;;;;;;;46.90;7.30;;;8.60;99.90;;;;;;5059203;28;20292;-76
2020/12/17 06:35:23;;;;;;;64.10;8.40;;;8.60;99.90;;;;;;5066068;28;20301;-75
2020/12/17 06:37:53;;;;;;;44.20;7.57;;;8.60;99.90;;;;;;5074461;28;20258;-75
2020/12/17 06:40:28;;;;;;;59.30;7.40;;;8.60;99.90;;;;;;5074275;28;20203;-76
2020/12/17 06:42:56;;;;;;;77.17;9.57;;;8.60;99.90;;;;;;5070710;28;20207;-75
2020/12/17 06:45:27;;;;;;;58.53;7.53;;;8.60;99.90;;;;;;5056414;28;20613;-75
2020/12/17 06:47:53;;;;;;;60.47;7.77;;;8.50;99.90;;;;;;5070535;28;20962;-75
2020/12/17 06:50:24;;;;;;;58.13;7.27;;;8.60;99.90;;;;;;5063675;28;20232;-75
2020/12/17 06:53:12;;;;;;;69.67;8.80;;;8.60;99.90;;;;;;5055052;28;20280;-75
2020/12/17 06:55:41;;;;;;;49.70;6.90;;;8.60;99.90;;;;;;5071903;28;20191;-76
2020/12/17 06:58:16;;;;;;;60.97;6.70;;;8.60;99.90;;;;;;5067928;28;20294;-76
2020/12/17 07:00:42;;;;;;;56.63;5.97;;;8.50;99.90;;;;;;5068271;28;20289;-75
2020/12/17 07:03:09;;;;;;;38.83;6.13;;;8.50;99.90;;;;;;5061570;28;20232;-76
2020/12/17 07:05:36;;;;;;;42.57;6.73;;;8.50;99.90;;;;;;5065219;28;20207;-75
2020/12/17 07:08:03;;;;;;;71.73;7.47;;;8.50;99.90;;;;;;5069780;28;20219;-75
2020/12/17 07:10:32;;;;;;;60.77;8.13;;;8.50;99.90;;;;;;5070868;28;20681;-75
2020/12/17 07:12:59;;;;;;;73.27;6.77;;;8.50;99.90;;;;;;5066510;28;20242;-75
2020/12/17 07:15:33;;;;;;;66.60;6.87;;;8.50;99.90;;;;;;5073371;28;20237;-76
2020/12/17 07:18:22;;;;;;;44.10;5.23;;;8.40;99.90;;;;;;5060456;28;20570;-76
2020/12/17 07:20:53;;;;;;;50.43;6.07;;;8.40;99.90;;;;;;5056368;28;20227;-76
2020/12/17 07:23:21;;;;;;;56.70;6.50;;;8.40;99.90;;;;;;5060261;28;20243;-75
2020/12/17 07:25:52;;;;;;;37.33;5.67;;;8.40;99.90;;;;;;5067684;28;20285;-75
2020/12/17 07:28:26;;;;;;;44.57;9.23;;;8.40;99.90;;;;;;5072749;28;20318;-75
2020/12/17 07:30:54;;;;;;;68.03;13.10;;;8.40;99.90;;;;;;5069510;28;20195;-76
2020/12/17 07:33:43;;;;;;;38.80;8.60;;;8.40;99.90;;;;;;5073638;28;20207;-75
2020/12/17 07:36:10;;;;;;;37.30;7.07;;;8.40;99.90;;;;;;5058120;28;20202;-75
2020/12/17 07:38:38;;;;;;;70.47;9.80;;;8.40;99.90;;;;;;5071384;28;20631;-75
2020/12/17 07:41:06;;;;;;;46.53;9.33;;;8.40;99.90;;;;;;5071194;28;20238;-75
2020/12/17 07:43:40;;;;;;;68.93;11.13;;;8.50;99.90;;;;;;5064124;28;20223;-75
2020/12/17 07:46:08;;;;;;;66.60;13.00;;;8.50;99.90;;;;;;5054977;28;20405;-75
2020/12/17 07:48:46;;;;;;;70.37;12.53;;;8.50;99.90;;;;;;5063051;28;20220;-76
2020/12/17 07:51:30;;;;;;;37.63;8.10;;;8.50;99.90;;;;;;5070532;28;20701;-76
2020/12/17 07:53:57;;;;;;;50.13;7.53;;;8.50;99.90;;;;;;5065203;28;20252;-76
2020/12/17 07:56:24;;;;;;;52.47;8.10;;;8.50;99.90;;;;;;5069948;28;20240;-76
2020/12/17 07:58:52;;;;;;;55.37;8.37;;;8.50;99.90;;;;;;5069142;28;20279;-76
2020/12/17 08:01:19;;;;;;;50.80;8.37;;;8.50;99.90;;;;;;5066554;28;20691;-76
2020/12/17 08:03:47;;;;;;;44.70;7.40;;;8.50;99.90;;;;;;5067926;28;20286;-75
2020/12/17 08:06:15;;;;;;;48.23;7.77;;;8.50;99.90;;;;;;5071737;28;20695;-75
2020/12/17 08:08:41;;;;;;;34.87;6.67;;;8.50;99.90;;;;;;5068391;28;20661;-76
2020/12/17 08:11:10;;;;;;;44.97;6.73;;;8.50;99.90;;;;;;5065412;28;20199;-75
2020/12/17 08:13:38;;;;;;;49.43;6.80;;;8.40;99.90;;;;;;5053753;28;20236;-75
2020/12/17 08:16:05;;;;;;;40.00;6.00;;;8.30;99.90;;;;;;5069629;28;20235;-75
2020/12/17 08:18:32;;;;;;;39.80;5.70;;;8.30;99.90;;;;;;5072219;28;20200;-75
2020/12/17 08:21:04;;;;;;;38.00;6.10;;;8.40;99.90;;;;;;5070229;28;20203;-76
2020/12/17 08:23:32;;;;;;;42.50;5.73;;;8.40;99.90;;;;;;5071903;28;20401;-75
2020/12/17 08:26:01;;;;;;;36.20;4.80;;;8.30;99.90;;;;;;5072307;28;20291;-75
2020/12/17 08:28:29;;;;;;;28.13;5.23;;;8.40;99.90;;;;;;5064995;28;20262;-75
2020/12/17 08:31:08;;;;;;;47.30;6.00;;;8.30;99.90;;;;;;5064687;28;20635;-75
2020/12/17 08:33:41;;;;;;;31.37;6.53;;;8.40;99.90;;;;;;5067572;28;20279;-76
2020/12/17 08:36:08;;;;;;;27.37;5.37;;;8.40;99.90;;;;;;5051548;28;20199;-75
2020/12/17 08:38:35;;;;;;;38.90;6.37;;;8.40;99.90;;;;;;5069476;28;20238;-75
2020/12/17 08:41:05;;;;;;;35.90;6.40;;;8.40;99.90;;;;;;5068173;28;20213;-75
2020/12/17 08:43:41;;;;;;;33.73;7.47;;;8.40;99.90;;;;;;5068601;28;20678;-76
2020/12/17 08:46:14;;;;;;;29.37;7.80;;;8.50;99.90;;;;;;5067217;28;20227;-75
2020/12/17 08:48:44;;;;;;;34.70;7.90;;;8.50;99.90;;;;;;5065045;28;20306;-75
2020/12/17 08:51:12;;;;;;;29.17;6.90;;;8.60;99.90;;;;;;5068545;28;20202;-76
2020/12/17 08:53:44;;;;;;;18.63;6.70;;;8.50;99.90;;;;;;5055310;28;20202;-75
2020/12/17 08:56:14;;;;;;;32.97;6.40;;;8.70;99.90;;;;;;5068538;28;20203;-75
2020/12/17 08:58:46;;;;;;;24.83;6.93;;;8.70;99.90;;;;;;5068654;28;20195;-75
2020/12/17 09:01:20;;;;;;;26.47;5.83;;;8.80;99.90;;;;;;5070529;28;20207;-74
2020/12/17 09:03:49;;;;;;;29.47;8.00;;;8.90;99.90;;;;;;5071610;28;20214;-75
2020/12/17 09:06:17;;;;;;;41.57;6.83;;;9.00;99.90;;;;;;5073767;28;20674;-75
2020/12/17 09:08:44;;;;;;;34.53;6.63;;;9.00;99.90;;;;;;5071198;28;20743;-74
2020/12/17 09:11:29;;;;;;;16.23;5.43;;;9.10;99.90;;;;;;5065506;28;20204;-75
2020/12/17 09:14:04;;;;;;;18.13;4.77;;;9.10;99.90;;;;;;5070064;28;20518;-75
2020/12/17 09:16:36;;;;;;;23.20;5.00;;;9.10;99.90;;;;;;5070646;28;20199;-75
2020/12/17 09:19:07;;;;;;;14.00;4.77;;;9.00;99.90;;;;;;5069268;28;20236;-75
2020/12/17 09:21:35;;;;;;;24.40;6.67;;;9.10;99.90;;;;;;5073793;28;20199;-75
2020/12/17 09:24:03;;;;;;;19.67;6.17;;;9.10;99.90;;;;;;5070195;28;20275;-75
2020/12/17 09:26:29;;;;;;;25.13;5.27;;;9.10;99.90;;;;;;5067734;28;20688;-75
2020/12/17 09:28:59;;;;;;;10.83;3.90;;;9.20;99.90;;;;;;5067673;28;20237;-75
2020/12/17 09:31:31;;;;;;;17.97;5.17;;;9.30;99.90;;;;;;5070229;28;20567;-75
2020/12/17 09:34:13;;;;;;;22.37;6.73;;;9.40;99.90;;;;;;5062177;28;20232;-75
2020/12/17 09:36:42;;;;;;;30.57;7.50;;;9.50;99.90;;;;;;5069791;28;20218;-74
2020/12/17 09:39:11;;;;;;;22.53;4.63;;;9.70;99.90;;;;;;5067146;28;20209;-76
2020/12/17 09:41:39;;;;;;;11.67;4.83;;;9.50;99.90;;;;;;5059878;28;20248;-76
2020/12/17 09:44:08;;;;;;;13.87;4.77;;;9.50;99.90;;;;;;5059715;28;20210;-76
2020/12/17 09:46:43;;;;;;;16.07;6.73;;;9.30;99.90;;;;;;5069915;28;20199;-76
2020/12/17 09:49:23;;;;;;;13.93;5.97;;;9.40;99.90;;;;;;5063249;28;20301;-76
2020/12/17 09:52:08;;;;;;;14.97;5.83;;;9.50;99.90;;;;;;5066472;28;20191;-76
2020/12/17 09:54:40;;;;;;;11.57;4.33;;;9.60;99.90;;;;;;5069607;28;20199;-76
2020/12/17 09:57:10;;;;;;;12.00;4.87;;;9.70;99.90;;;;;;5066945;28;20238;-77
2020/12/17 09:59:37;;;;;;;15.33;5.97;;;9.50;99.90;;;;;;5069349;28;21486;-77
2020/12/17 10:02:06;;;;;;;12.00;6.70;;;9.60;99.90;;;;;;5068674;28;20237;-76
2020/12/17 10:04:45;;;;;;;15.33;6.20;;;9.70;99.90;;;;;;5069333;28;20252;-76
2020/12/17 10:07:18;;;;;;;11.17;5.07;;;9.80;99.90;;;;;;5071046;28;20214;-76
2020/12/17 10:09:44;;;;;;;13.57;5.30;;;9.70;99.90;;;;;;5075369;28;20215;-76
2020/12/17 10:12:11;;;;;;;13.53;5.40;;;9.70;99.90;;;;;;5076300;28;20214;-76
2020/12/17 10:14:38;;;;;;;16.83;5.87;;;9.70;99.90;;;;;;5072032;28;20669;-76
2020/12/17 10:17:12;;;;;;;13.33;5.80;;;9.80;99.90;;;;;;5068850;28;20203;-76
2020/12/17 10:19:39;;;;;;;11.83;5.73;;;9.70;99.90;;;;;;5071336;28;20198;-76
2020/12/17 10:22:06;;;;;;;17.07;7.10;;;9.80;99.90;;;;;;5072360;28;20293;-76
2020/12/17 10:24:33;;;;;;;18.03;9.20;;;9.90;99.90;;;;;;5072242;28;20195;-76
2020/12/17 10:27:02;;;;;;;12.67;6.47;;;10.00;99.90;;;;;;5068528;28;20215;-76
2020/12/17 10:29:29;;;;;;;12.07;7.07;;;9.90;99.90;;;;;;5071051;28;20238;-76
2020/12/17 10:31:56;;;;;;;14.77;7.13;;;9.90;99.90;;;;;;5069067;28;20196;-76
2020/12/17 10:34:25;;;;;;;18.63;7.23;;;10.00;99.90;;;;;;5069947;28;20322;-76
2020/12/17 10:36:52;;;;;;;26.00;7.83;;;10.20;99.90;;;;;;5069357;28;20200;-76
2020/12/17 10:39:19;;;;;;;19.90;7.80;;;10.40;99.90;;;;;;5073313;28;20199;-76
2020/12/17 10:41:45;;;;;;;13.03;7.87;;;10.30;99.90;;;;;;5072935;28;20230;-76
2020/12/17 10:44:12;;;;;;;14.93;8.50;;;10.20;99.90;;;;;;5057611;28;20203;-76
2020/12/17 10:46:48;;;;;;;15.97;7.80;;;10.20;99.90;;;;;;5065750;28;20230;-76
2020/12/17 10:49:15;;;;;;;18.53;9.20;;;10.30;99.90;;;;;;5073576;28;20223;-76
2020/12/17 10:51:43;;;;;;;17.13;9.43;;;10.50;99.90;;;;;;5071899;28;20262;-76
2020/12/17 10:54:09;;;;;;;18.10;8.63;;;10.60;99.90;;;;;;5071443;28;20245;-76
2020/12/17 10:56:36;;;;;;;17.77;8.83;;;10.50;99.90;;;;;;5069636;28;20207;-76
2020/12/17 10:59:03;;;;;;;16.33;8.37;;;10.50;99.90;;;;;;5066948;28;20207;-76
2020/12/17 11:01:30;;;;;;;16.67;8.40;;;10.70;99.90;;;;;;5073237;28;20222;-76
2020/12/17 11:03:57;;;;;;;17.43;8.90;;;10.70;99.90;;;;;;5072418;28;20234;-76
2020/12/17 11:06:23;;;;;;;13.90;9.50;;;11.10;99.90;;;;;;5069354;28;20208;-76
2020/12/17 11:08:51;;;;;;;14.57;8.07;;;11.70;99.90;;;;;;5069482;28;20702;-76
2020/12/17 11:11:17;;;;;;;11.93;7.80;;;11.40;99.90;;;;;;5071834;28;20277;-76
2020/12/17 11:13:44;;;;;;;15.30;8.00;;;11.60;99.90;;;;;;5063251;28;20291;-76
2020/12/17 11:16:10;;;;;;;11.13;7.77;;;11.90;99.90;;;;;;5053582;28;20235;-76
2020/12/17 11:18:39;;;;;;;15.67;7.27;;;12.10;99.90;;;;;;5061906;28;20616;-76
2020/12/17 11:21:05;;;;;;;11.97;7.27;;;12.00;99.90;;;;;;5070118;28;20287;-76
2020/12/17 11:23:33;;;;;;;10.17;7.00;;;12.40;99.90;;;;;;5064426;28;20231;-77
2020/12/17 11:26:02;;;;;;;8.33;5.87;;;13.10;99.90;;;;;;5073016;28;20213;-76
2020/12/17 11:28:28;;;;;;;13.17;6.00;;;13.30;99.90;;;;;;5073192;28;20262;-76
2020/12/17 11:30:55;;;;;;;12.43;6.20;;;13.40;99.90;;;;;;5073544;28;20230;-76
2020/12/17 11:33:21;;;;;;;12.20;6.57;;;12.60;99.90;;;;;;5074070;28;20710;-76
2020/12/17 11:35:48;;;;;;;10.23;6.87;;;12.80;99.90;;;;;;5055657;28;20270;-76
2020/12/17 11:38:15;;;;;;;13.00;6.93;;;12.80;99.90;;;;;;5061063;28;20223;-76
2020/12/17 11:40:42;;;;;;;11.70;7.17;;;13.50;99.90;;;;;;5066802;28;20205;-76
2020/12/17 11:43:12;;;;;;;11.03;7.10;;;12.90;99.90;;;;;;5062140;28;20698;-75
2020/12/17 11:45:38;;;;;;;10.07;6.80;;;13.20;99.90;;;;;;5075633;28;20242;-76
2020/12/17 11:48:04;;;;;;;13.70;7.10;;;13.20;99.90;;;;;;5058934;28;20214;-76
2020/12/17 11:50:31;;;;;;;12.70;6.97;;;13.10;99.90;;;;;;5063634;28;20432;-76
2020/12/17 11:52:57;;;;;;;11.97;6.57;;;13.60;99.90;;;;;;5051859;28;20200;-76
2020/12/17 11:55:24;;;;;;;11.83;6.63;;;13.80;99.90;;;;;;5072445;28;20682;-76
2020/12/17 11:57:50;;;;;;;10.77;6.77;;;13.90;99.90;;;;;;5062691;28;21071;-76
2020/12/17 12:00:18;;;;;;;9.47;6.20;;;14.00;99.90;;;;;;5062309;28;20238;-76
2020/12/17 12:02:44;;;;;;;10.03;6.77;;;14.00;99.90;;;;;;5073287;28;20234;-77
2020/12/17 12:05:11;;;;;;;12.23;6.70;;;14.00;99.90;;;;;;5064333;28;20247;-76
2020/12/17 12:07:37;;;;;;;9.90;6.07;;;14.50;99.90;;;;;;5067143;28;20206;-76
2020/12/17 12:10:04;;;;;;;11.30;5.73;;;13.90;99.90;;;;;;5062914;28;20256;-76
2020/12/17 12:12:31;;;;;;;9.43;4.50;;;14.40;99.90;;;;;;5064128;28;20259;-76
2020/12/17 12:14:57;;;;;;;12.03;4.43;;;14.70;99.90;;;;;;5066214;28;20239;-77
2020/12/17 12:17:24;;;;;;;9.70;4.10;;;14.80;99.90;;;;;;5056977;28;20278;-76
2020/12/17 12:19:51;;;;;;;11.57;3.40;;;15.20;99.90;;;;;;5068983;28;20195;-76
2020/12/17 12:22:18;;;;;;;6.30;3.07;;;15.00;99.90;;;;;;5067736;28;20718;-76
2020/12/17 12:24:44;;;;;;;9.83;3.50;;;14.60;99.90;;;;;;5069345;28;20234;-76
2020/12/17 12:27:10;;;;;;;9.77;2.40;;;14.90;99.90;;;;;;5066686;28;20790;-76
2020/12/17 12:29:37;;;;;;;6.80;3.00;;;14.80;99.90;;;;;;5049083;28;20685;-76
2020/12/17 12:32:03;;;;;;;8.93;2.70;;;15.00;99.90;;;;;;5068437;28;20280;-76
2020/12/17 12:34:30;;;;;;;10.77;3.33;;;15.50;99.90;;;;;;5070925;28;20240;-76
2020/12/17 12:36:58;;;;;;;10.00;3.37;;;15.30;99.90;;;;;;5064896;28;20199;-76
2020/12/17 12:39:24;;;;;;;6.03;2.30;;;15.80;99.90;;;;;;5068863;28;20187;-76
2020/12/17 12:41:53;;;;;;;6.43;2.40;;;15.50;99.90;;;;;;5056226;28;20290;-77
2020/12/17 12:44:19;;;;;;;5.13;2.23;;;15.90;99.90;;;;;;5062884;28;20237;-77
2020/12/17 12:46:49;;;;;;;5.53;1.70;;;15.80;99.90;;;;;;5064355;28;20298;-76
2020/12/17 12:49:16;;;;;;;6.10;2.30;;;15.40;99.90;;;;;;5062096;28;20614;-76
2020/12/17 12:51:43;;;;;;;9.90;2.57;;;15.60;99.90;;;;;;5062923;28;20729;-75